createdAt,value
2018-08-16T00:00:28.049Z,62.10
2018-08-16T00:01:03.270Z,62.10
2018-08-16T00:01:37.671Z,62.00
2018-08-16T00:02:11.925Z,62.00
2018-08-16T00:02:46.686Z,62.10
2018-08-16T00:03:20.280Z,62.10
2018-08-16T00:03:53.894Z,62.10
2018-08-16T00:04:27.455Z,62.00
2018-08-16T00:05:01.064Z,62.00
2018-08-16T00:05:35.322Z,62.00
2018-08-16T00:06:08.975Z,62.00
2018-08-16T00:06:42.511Z,62.00
2018-08-16T00:07:16.086Z,61.90
2018-08-16T00:07:50.630Z,62.00
2018-08-16T00:08:24.157Z,62.30
2018-08-16T00:08:57.767Z,62.10
2018-08-16T00:09:31.329Z,61.90
2018-08-16T00:10:08.968Z,62.00
2018-08-16T00:10:42.619Z,62.00
2018-08-16T00:11:16.182Z,61.50
2018-08-16T00:11:49.690Z,61.40
2018-08-16T00:12:23.419Z,61.40
2018-08-16T00:12:57.041Z,61.30
2018-08-16T00:13:30.699Z,61.30
2018-08-16T00:14:04.432Z,61.60
2018-08-16T00:14:37.986Z,61.90
2018-08-16T00:15:11.640Z,61.90
2018-08-16T00:15:45.249Z,61.70
2018-08-16T00:16:18.868Z,61.70
2018-08-16T00:16:52.498Z,61.60
2018-08-16T00:17:26.333Z,61.60
2018-08-16T00:17:59.948Z,61.90
2018-08-16T00:18:34.391Z,61.90
2018-08-16T00:19:08.016Z,62.00
2018-08-16T00:19:41.969Z,61.80
2018-08-16T00:20:15.741Z,61.80
2018-08-16T00:20:49.325Z,61.70
2018-08-16T00:21:22.895Z,61.50
2018-08-16T00:21:56.468Z,61.50
2018-08-16T00:22:30.040Z,61.70
2018-08-16T00:23:03.786Z,61.80
2018-08-16T00:23:37.997Z,61.60
2018-08-16T00:24:11.616Z,61.10
2018-08-16T00:24:45.176Z,61.10
2018-08-16T00:25:18.783Z,61.20
2018-08-16T00:25:52.346Z,61.50
2018-08-16T00:26:26.400Z,61.40
2018-08-16T00:27:00.007Z,61.40
2018-08-16T00:27:33.596Z,61.60
2018-08-16T00:28:07.431Z,61.80
2018-08-16T00:28:40.919Z,62.00
2018-08-16T00:29:14.473Z,61.70
2018-08-16T00:29:48.007Z,61.50
2018-08-16T00:30:21.576Z,61.60
2018-08-16T00:30:55.071Z,61.40
2018-08-16T00:31:28.638Z,61.60
2018-08-16T00:32:02.194Z,61.80
2018-08-16T00:32:36.103Z,61.90
2018-08-16T00:33:09.685Z,61.70
2018-08-16T00:33:43.255Z,61.70
2018-08-16T00:34:16.844Z,61.60
2018-08-16T00:34:50.394Z,61.50
2018-08-16T00:35:24.517Z,61.50
2018-08-16T00:35:58.952Z,61.60
2018-08-16T00:36:33.750Z,61.40
2018-08-16T00:37:07.316Z,61.50
2018-08-16T00:37:40.886Z,61.50
2018-08-16T00:38:15.092Z,61.50
2018-08-16T00:38:48.607Z,61.50
2018-08-16T00:39:22.175Z,61.50
2018-08-16T00:39:56.551Z,61.50
2018-08-16T00:40:30.685Z,61.70
2018-08-16T00:41:04.242Z,61.50
2018-08-16T00:41:37.952Z,61.40
2018-08-16T00:42:12.367Z,61.50
2018-08-16T00:42:47.504Z,61.50
2018-08-16T00:43:21.005Z,61.50
2018-08-16T00:43:54.546Z,61.50
2018-08-16T00:44:28.141Z,61.60
2018-08-16T00:45:02.795Z,61.80
2018-08-16T00:45:36.981Z,62.00
2018-08-16T00:46:11.314Z,62.00
2018-08-16T00:46:45.746Z,62.30
2018-08-16T00:47:19.312Z,62.10
2018-08-16T00:47:54.147Z,62.20
2018-08-16T00:48:27.659Z,62.40
2018-08-16T00:49:01.227Z,62.50
2018-08-16T00:49:34.880Z,62.30
2018-08-16T00:50:10.743Z,62.30
2018-08-16T00:50:44.284Z,62.30
2018-08-16T00:51:17.843Z,62.20
2018-08-16T00:51:52.700Z,62.30
2018-08-16T00:52:26.248Z,62.30
2018-08-16T00:53:00.322Z,62.20
2018-08-16T00:53:33.868Z,62.10
2018-08-16T00:54:07.439Z,62.30
2018-08-16T00:54:41.004Z,62.60
2018-08-16T00:55:15.111Z,62.40
2018-08-16T00:55:48.772Z,62.40
2018-08-16T00:56:23.079Z,62.30
2018-08-16T00:56:56.669Z,62.10
2018-08-16T00:57:30.924Z,62.00
2018-08-16T00:58:04.813Z,62.10
2018-08-16T00:58:39.009Z,62.80
2018-08-16T00:59:12.560Z,63.00
2018-08-16T00:59:46.122Z,62.20
2018-08-16T01:00:19.678Z,62.30
2018-08-16T01:00:54.038Z,62.30
2018-08-16T01:01:28.430Z,62.40
2018-08-16T01:02:02.571Z,62.50
2018-08-16T01:02:36.858Z,62.30
2018-08-16T01:03:10.431Z,62.40
2018-08-16T01:03:43.970Z,62.60
2018-08-16T01:04:18.238Z,62.60
2018-08-16T01:04:51.957Z,62.40
2018-08-16T01:05:26.283Z,62.40
2018-08-16T01:06:00.499Z,62.30
2018-08-16T01:06:35.243Z,62.30
2018-08-16T01:07:08.831Z,62.20
2018-08-16T01:07:43.043Z,62.30
2018-08-16T01:08:16.625Z,62.50
2018-08-16T01:08:50.206Z,62.50
2018-08-16T01:09:23.736Z,62.40
2018-08-16T01:09:58.108Z,62.50
2018-08-16T01:10:32.660Z,62.50
2018-08-16T01:11:07.217Z,62.40
2018-08-16T01:11:41.414Z,62.20
2018-08-16T01:12:15.001Z,62.10
2018-08-16T01:12:49.551Z,62.30
2018-08-16T01:13:23.100Z,62.40
2018-08-16T01:13:56.780Z,62.50
2018-08-16T01:14:30.344Z,62.60
2018-08-16T01:15:04.812Z,62.50
2018-08-16T01:15:38.434Z,62.60
2018-08-16T01:16:11.995Z,62.50
2018-08-16T01:16:46.398Z,62.60
2018-08-16T01:17:19.960Z,62.60
2018-08-16T01:17:53.668Z,62.60
2018-08-16T01:18:27.230Z,62.60
2018-08-16T01:19:00.832Z,62.60
2018-08-16T01:19:34.360Z,62.60
2018-08-16T01:20:08.601Z,62.60
2018-08-16T01:20:42.274Z,62.60
2018-08-16T01:21:15.888Z,62.70
2018-08-16T01:21:49.551Z,62.60
2018-08-16T01:22:23.189Z,62.50
2018-08-16T01:22:58.243Z,62.60
2018-08-16T01:23:31.905Z,62.60
2018-08-16T01:24:05.513Z,62.40
2018-08-16T01:24:39.179Z,62.50
2018-08-16T01:25:13.130Z,62.60
2018-08-16T01:25:46.779Z,62.70
2018-08-16T01:26:21.021Z,62.40
2018-08-16T01:26:54.849Z,62.50
2018-08-16T01:27:28.439Z,62.50
2018-08-16T01:28:02.069Z,62.50
2018-08-16T01:28:35.599Z,62.50
2018-08-16T01:29:10.420Z,62.50
2018-08-16T01:29:43.980Z,62.60
2018-08-16T01:30:17.523Z,62.70
2018-08-16T01:30:51.130Z,62.60
2018-08-16T01:31:24.898Z,62.60
2018-08-16T01:31:58.597Z,62.60
2018-08-16T01:32:33.380Z,62.80
2018-08-16T01:33:06.971Z,62.60
2018-08-16T01:33:40.590Z,62.60
2018-08-16T01:34:14.557Z,62.50
2018-08-16T01:34:48.149Z,62.50
2018-08-16T01:35:22.665Z,62.60
2018-08-16T01:35:56.271Z,62.40
2018-08-16T01:36:30.387Z,62.30
2018-08-16T01:37:04.705Z,62.50
2018-08-16T01:37:38.815Z,62.50
2018-08-16T01:38:12.356Z,62.60
2018-08-16T01:38:46.288Z,62.70
2018-08-16T01:39:19.896Z,62.80
2018-08-16T01:39:53.467Z,62.90
2018-08-16T01:40:27.101Z,62.90
2018-08-16T01:41:01.359Z,62.80
2018-08-16T01:41:34.947Z,62.80
2018-08-16T01:42:09.000Z,62.80
2018-08-16T01:42:42.484Z,62.90
2018-08-16T01:43:16.091Z,62.80
2018-08-16T01:43:49.680Z,62.70
2018-08-16T01:44:23.260Z,62.60
2018-08-16T01:44:57.609Z,62.70
2018-08-16T01:45:31.322Z,62.50
2018-08-16T01:46:05.591Z,62.80
2018-08-16T01:46:39.140Z,62.60
2018-08-16T01:47:13.376Z,62.60
2018-08-16T01:47:46.905Z,62.60
2018-08-16T01:48:20.457Z,62.60
2018-08-16T01:48:54.125Z,62.50
2018-08-16T01:49:30.710Z,62.60
2018-08-16T01:50:05.130Z,62.70
2018-08-16T01:50:38.647Z,62.50
2018-08-16T01:51:12.291Z,62.60
2018-08-16T01:51:45.986Z,62.70
2018-08-16T01:52:19.539Z,62.50
2018-08-16T01:52:53.111Z,62.30
2018-08-16T01:53:27.383Z,62.40
2018-08-16T01:54:00.969Z,62.80
2018-08-16T01:54:34.797Z,62.60
2018-08-16T01:55:08.672Z,62.70
2018-08-16T01:55:42.232Z,62.60
2018-08-16T01:56:17.180Z,62.40
2018-08-16T01:56:51.623Z,62.50
2018-08-16T01:57:25.274Z,62.40
2018-08-16T01:57:58.836Z,62.50
2018-08-16T01:58:32.382Z,62.50
2018-08-16T01:59:06.021Z,62.40
2018-08-16T01:59:39.611Z,62.50
2018-08-16T02:00:13.280Z,62.60
2018-08-16T02:00:46.952Z,62.50
2018-08-16T02:01:20.528Z,62.50
2018-08-16T02:01:54.327Z,62.60
2018-08-16T02:02:27.882Z,62.60
2018-08-16T02:03:01.476Z,62.50
2018-08-16T02:03:35.768Z,62.50
2018-08-16T02:04:09.329Z,62.60
2018-08-16T02:04:42.936Z,62.50
2018-08-16T02:05:16.592Z,62.40
2018-08-16T02:05:50.168Z,62.40
2018-08-16T02:06:23.764Z,62.70
2018-08-16T02:06:57.440Z,62.70
2018-08-16T02:07:31.049Z,62.70
2018-08-16T02:08:05.165Z,62.50
2018-08-16T02:08:38.687Z,62.40
2018-08-16T02:09:12.216Z,62.30
2018-08-16T02:09:45.852Z,62.50
2018-08-16T02:10:20.186Z,62.50
2018-08-16T02:10:54.491Z,62.50
2018-08-16T02:11:28.667Z,62.40
2018-08-16T02:12:02.204Z,62.60
2018-08-16T02:12:35.892Z,62.70
2018-08-16T02:13:09.782Z,62.80
2018-08-16T02:13:43.331Z,62.70
2018-08-16T02:14:17.479Z,62.60
2018-08-16T02:14:51.081Z,62.70
2018-08-16T02:15:24.731Z,62.70
2018-08-16T02:16:14.829Z,62.50
2018-08-16T02:16:55.842Z,63.00
2018-08-16T02:17:30.074Z,62.40
2018-08-16T02:18:04.193Z,62.70
2018-08-16T02:18:38.910Z,62.80
2018-08-16T02:19:13.259Z,62.70
2018-08-16T02:19:46.793Z,62.70
2018-08-16T02:20:21.537Z,62.60
2018-08-16T02:20:55.636Z,62.80
2018-08-16T02:21:30.552Z,62.90
2018-08-16T02:22:04.271Z,62.90
2018-08-16T02:22:38.523Z,62.90
2018-08-16T02:23:12.973Z,62.80
2018-08-16T02:23:46.968Z,62.90
2018-08-16T02:24:20.622Z,62.80
2018-08-16T02:24:54.203Z,62.80
2018-08-16T02:25:29.475Z,62.90
2018-08-16T02:26:03.227Z,62.90
2018-08-16T02:26:37.080Z,63.50
2018-08-16T02:27:10.685Z,62.90
2018-08-16T02:27:45.026Z,62.90
2018-08-16T02:28:18.568Z,63.10
2018-08-16T02:28:52.627Z,63.20
2018-08-16T02:29:26.324Z,63.30
2018-08-16T02:30:00.347Z,63.10
2018-08-16T02:30:33.993Z,63.30
2018-08-16T02:31:07.591Z,63.10
2018-08-16T02:31:41.624Z,63.20
2018-08-16T02:32:15.260Z,63.30
2018-08-16T02:32:49.429Z,63.30
2018-08-16T02:33:22.997Z,63.40
2018-08-16T02:33:56.709Z,63.40
2018-08-16T02:34:30.310Z,63.50
2018-08-16T02:35:03.963Z,63.50
2018-08-16T02:35:37.592Z,63.40
2018-08-16T02:36:11.793Z,63.40
2018-08-16T02:36:45.323Z,63.40
2018-08-16T02:37:18.889Z,63.40
2018-08-16T02:37:52.420Z,63.40
2018-08-16T02:38:25.935Z,63.50
2018-08-16T02:38:59.564Z,63.50
2018-08-16T02:39:33.120Z,63.40
2018-08-16T02:40:08.089Z,63.70
2018-08-16T02:40:41.672Z,63.60
2018-08-16T02:41:15.534Z,63.60
2018-08-16T02:41:49.583Z,63.60
2018-08-16T02:42:23.767Z,63.60
2018-08-16T02:42:58.224Z,63.60
2018-08-16T02:43:31.793Z,63.60
2018-08-16T02:44:05.646Z,63.70
2018-08-16T02:44:39.161Z,63.70
2018-08-16T02:45:13.018Z,63.60
2018-08-16T02:45:46.613Z,63.50
2018-08-16T02:46:21.121Z,63.70
2018-08-16T02:46:54.694Z,63.90
2018-08-16T02:47:28.264Z,63.80
2018-08-16T02:48:01.813Z,63.80
2018-08-16T02:48:35.387Z,64.10
2018-08-16T02:49:09.703Z,64.00
2018-08-16T02:49:43.938Z,63.90
2018-08-16T02:50:17.575Z,63.90
2018-08-16T02:50:51.136Z,63.70
2018-08-16T02:51:24.808Z,63.70
2018-08-16T02:51:58.350Z,63.80
2018-08-16T02:52:32.510Z,64.10
2018-08-16T02:53:06.313Z,64.20
2018-08-16T02:53:39.842Z,64.40
2018-08-16T02:54:14.171Z,64.40
2018-08-16T02:54:47.731Z,64.40
2018-08-16T02:55:22.742Z,64.30
2018-08-16T02:55:56.394Z,64.40
2018-08-16T02:56:30.069Z,64.40
2018-08-16T02:57:03.747Z,64.40
2018-08-16T02:57:37.982Z,64.30
2018-08-16T02:58:12.208Z,64.30
2018-08-16T02:58:45.807Z,64.30
2018-08-16T02:59:19.974Z,64.30
2018-08-16T02:59:53.956Z,64.30
2018-08-16T03:00:27.511Z,64.50
2018-08-16T03:01:01.197Z,64.40
2018-08-16T03:01:35.276Z,64.30
2018-08-16T03:02:08.900Z,64.30
2018-08-16T03:02:42.460Z,64.30
2018-08-16T03:03:16.441Z,64.30
2018-08-16T03:03:50.793Z,64.30
2018-08-16T03:04:24.344Z,64.40
2018-08-16T03:04:59.838Z,64.60
2018-08-16T03:05:33.439Z,64.50
2018-08-16T03:06:07.493Z,64.40
2018-08-16T03:06:41.183Z,64.40
2018-08-16T03:07:14.820Z,64.40
2018-08-16T03:07:48.352Z,64.50
2018-08-16T03:08:21.875Z,64.50
2018-08-16T03:08:55.393Z,64.40
2018-08-16T03:09:29.098Z,64.40
2018-08-16T03:10:02.676Z,64.40
2018-08-16T03:10:36.296Z,64.30
2018-08-16T03:11:11.809Z,64.40
2018-08-16T03:11:45.354Z,64.40
2018-08-16T03:12:18.980Z,64.30
2018-08-16T03:12:52.589Z,64.20
2018-08-16T03:13:26.318Z,64.20
2018-08-16T03:14:00.725Z,64.30
2018-08-16T03:14:34.255Z,64.40
2018-08-16T03:15:09.431Z,64.30
2018-08-16T03:15:43.822Z,65.00
2018-08-16T03:16:17.444Z,64.30
2018-08-16T03:16:51.785Z,64.20
2018-08-16T03:17:25.686Z,64.40
2018-08-16T03:17:59.325Z,64.30
2018-08-16T03:18:32.909Z,64.20
2018-08-16T03:19:06.549Z,64.40
2018-08-16T03:19:40.188Z,64.40
2018-08-16T03:20:13.801Z,64.10
2018-08-16T03:20:47.375Z,64.10
2018-08-16T03:21:20.927Z,64.00
2018-08-16T03:21:54.523Z,63.90
2018-08-16T03:22:28.076Z,63.70
2018-08-16T03:23:02.299Z,63.60
2018-08-16T03:23:35.859Z,63.70
2018-08-16T03:24:09.390Z,63.60
2018-08-16T03:24:43.001Z,63.70
2018-08-16T03:25:16.575Z,63.70
2018-08-16T03:25:50.147Z,63.70
2018-08-16T03:26:24.202Z,63.80
2018-08-16T03:26:57.775Z,63.60
2018-08-16T03:27:31.327Z,63.60
2018-08-16T03:28:05.357Z,63.80
2018-08-16T03:28:38.928Z,63.80
2018-08-16T03:29:13.197Z,63.70
2018-08-16T03:29:47.050Z,63.80
2018-08-16T03:30:20.567Z,64.10
2018-08-16T03:30:54.245Z,64.40
2018-08-16T03:31:27.827Z,64.30
2018-08-16T03:32:02.333Z,65.20
2018-08-16T03:32:35.945Z,64.40
2018-08-16T03:33:09.727Z,64.50
2018-08-16T03:33:43.342Z,64.60
2018-08-16T03:34:16.942Z,64.50
2018-08-16T03:34:50.560Z,64.30
2018-08-16T03:35:24.690Z,64.90
2018-08-16T03:35:58.275Z,64.30
2018-08-16T03:36:31.855Z,64.20
2018-08-16T03:37:05.521Z,64.10
2018-08-16T03:37:39.733Z,64.00
2018-08-16T03:38:13.948Z,64.10
2018-08-16T03:38:47.499Z,64.40
2018-08-16T03:39:21.063Z,64.50
2018-08-16T03:39:54.660Z,64.50
2018-08-16T03:40:28.255Z,64.30
2018-08-16T03:41:02.297Z,64.30
2018-08-16T03:41:36.156Z,64.30
2018-08-16T03:42:10.477Z,64.40
2018-08-16T03:42:44.105Z,64.50
2018-08-16T03:43:17.648Z,64.40
2018-08-16T03:43:51.140Z,64.40
2018-08-16T03:44:24.733Z,64.40
2018-08-16T03:44:58.328Z,64.50
2018-08-16T03:45:31.895Z,64.70
2018-08-16T03:46:07.157Z,64.70
2018-08-16T03:46:40.770Z,64.70
2018-08-16T03:47:14.252Z,64.80
2018-08-16T03:47:48.344Z,64.70
2018-08-16T03:48:22.493Z,64.70
2018-08-16T03:48:56.068Z,64.70
2018-08-16T03:49:29.933Z,64.70
2018-08-16T03:50:03.563Z,64.60
2018-08-16T03:50:37.084Z,64.70
2018-08-16T03:51:10.645Z,64.80
2018-08-16T03:51:45.846Z,64.90
2018-08-16T03:52:20.017Z,64.80
2018-08-16T03:52:53.594Z,64.70
2018-08-16T03:53:27.111Z,65.00
2018-08-16T03:54:00.730Z,65.00
2018-08-16T03:54:34.406Z,65.20
2018-08-16T03:55:08.123Z,65.40
2018-08-16T03:55:42.513Z,65.50
2018-08-16T03:56:16.120Z,65.60
2018-08-16T03:56:49.656Z,65.70
2018-08-16T03:57:23.865Z,65.80
2018-08-16T03:57:57.438Z,65.80
2018-08-16T03:58:32.402Z,66.00
2018-08-16T03:59:06.709Z,66.20
2018-08-16T03:59:40.301Z,66.20
2018-08-16T04:00:14.670Z,66.40
2018-08-16T04:00:48.309Z,66.50
2018-08-16T04:01:21.848Z,66.70
2018-08-16T04:01:55.314Z,67.00
2018-08-16T04:02:29.526Z,67.00
2018-08-16T04:03:03.065Z,67.00
2018-08-16T04:03:36.735Z,67.00
2018-08-16T04:04:10.867Z,67.20
2018-08-16T04:04:44.397Z,67.20
2018-08-16T04:05:17.972Z,67.10
2018-08-16T04:05:51.484Z,67.20
2018-08-16T04:06:25.012Z,67.40
2018-08-16T04:06:58.572Z,67.20
2018-08-16T04:07:32.105Z,67.50
2018-08-16T04:08:05.715Z,68.40
2018-08-16T04:08:39.339Z,67.60
2018-08-16T04:09:12.886Z,67.70
2018-08-16T04:09:47.161Z,67.70
2018-08-16T04:10:20.686Z,67.70
2018-08-16T04:10:54.611Z,67.70
2018-08-16T04:11:29.444Z,67.60
2018-08-16T04:12:03.480Z,67.70
2018-08-16T04:12:37.495Z,67.70
2018-08-16T04:13:11.399Z,67.80
2018-08-16T04:13:45.014Z,67.70
2018-08-16T04:14:19.308Z,67.60
2018-08-16T04:14:52.891Z,67.70
2018-08-16T04:15:26.584Z,67.60
2018-08-16T04:16:00.179Z,67.40
2018-08-16T04:16:33.797Z,67.50
2018-08-16T04:17:07.403Z,67.50
2018-08-16T04:17:40.984Z,67.50
2018-08-16T04:18:14.529Z,67.40
2018-08-16T04:18:48.693Z,67.50
2018-08-16T04:19:22.261Z,67.40
2018-08-16T04:19:55.868Z,67.60
2018-08-16T04:20:29.498Z,67.60
2018-08-16T04:21:03.683Z,67.50
2018-08-16T04:21:38.435Z,67.50
2018-08-16T04:22:12.432Z,67.40
2018-08-16T04:22:46.479Z,67.50
2018-08-16T04:23:21.220Z,67.60
2018-08-16T04:23:55.625Z,67.60
2018-08-16T04:24:29.215Z,67.60
2018-08-16T04:25:03.584Z,67.70
2018-08-16T04:25:37.160Z,67.50
2018-08-16T04:26:10.729Z,67.50
2018-08-16T04:26:44.268Z,67.60
2018-08-16T04:27:18.472Z,67.70
2018-08-16T04:27:52.758Z,67.60
2018-08-16T04:28:26.347Z,67.50
2018-08-16T04:29:00.487Z,67.60
2018-08-16T04:29:34.116Z,67.70
2018-08-16T04:30:07.724Z,67.60
2018-08-16T04:30:41.284Z,67.50
2018-08-16T04:31:15.424Z,67.70
2018-08-16T04:31:49.591Z,67.80
2018-08-16T04:32:23.888Z,67.80
2018-08-16T04:32:57.435Z,67.50
2018-08-16T04:33:31.004Z,67.40
2018-08-16T04:34:04.573Z,67.50
2018-08-16T04:34:38.100Z,67.40
2018-08-16T04:35:11.760Z,67.40
2018-08-16T04:35:45.283Z,67.50
2018-08-16T04:36:20.009Z,67.50
2018-08-16T04:36:54.055Z,67.50
2018-08-16T04:37:27.620Z,67.70
2018-08-16T04:38:01.127Z,67.60
2018-08-16T04:38:34.675Z,67.40
2018-08-16T04:39:09.688Z,67.10
2018-08-16T04:39:43.247Z,67.20
2018-08-16T04:40:16.820Z,67.20
2018-08-16T04:40:50.374Z,67.90
2018-08-16T04:41:24.476Z,67.00
2018-08-16T04:41:58.174Z,67.00
2018-08-16T04:42:31.645Z,66.90
2018-08-16T04:43:05.739Z,66.70
2018-08-16T04:43:39.260Z,66.70
2018-08-16T04:44:12.851Z,66.70
2018-08-16T04:44:46.380Z,66.80
2018-08-16T04:45:19.959Z,66.90
2018-08-16T04:45:53.534Z,66.80
2018-08-16T04:46:27.097Z,67.50
2018-08-16T04:47:01.215Z,66.90
2018-08-16T04:47:34.874Z,66.90
2018-08-16T04:48:08.872Z,67.10
2018-08-16T04:48:42.505Z,66.90
2018-08-16T04:49:16.149Z,67.00
2018-08-16T04:49:50.171Z,67.00
2018-08-16T04:50:23.759Z,67.10
2018-08-16T04:50:58.060Z,67.20
2018-08-16T04:51:32.383Z,67.20
2018-08-16T04:52:06.445Z,67.10
2018-08-16T04:52:40.590Z,67.10
2018-08-16T04:53:14.186Z,67.20
2018-08-16T04:53:47.717Z,67.20
2018-08-16T04:54:22.260Z,67.20
2018-08-16T04:54:55.803Z,67.20
2018-08-16T04:55:29.394Z,67.00
2018-08-16T04:56:02.993Z,67.70
2018-08-16T04:56:36.576Z,67.00
2018-08-16T04:57:11.465Z,67.10
2018-08-16T04:57:45.055Z,67.20
2018-08-16T04:58:18.677Z,67.30
2018-08-16T04:58:52.249Z,67.30
2018-08-16T04:59:25.873Z,67.20
2018-08-16T04:59:59.489Z,67.10
2018-08-16T05:00:33.046Z,67.20
2018-08-16T05:01:06.968Z,67.20
2018-08-16T05:01:40.583Z,67.40
2018-08-16T05:02:14.784Z,67.60
2018-08-16T05:02:48.932Z,67.70
2018-08-16T05:03:22.508Z,67.60
2018-08-16T05:03:56.630Z,67.50
2018-08-16T05:04:30.264Z,67.50
2018-08-16T05:05:05.075Z,67.30
2018-08-16T05:05:38.715Z,67.20
2018-08-16T05:06:12.980Z,66.90
2018-08-16T05:06:46.606Z,66.50
2018-08-16T05:07:20.964Z,66.50
2018-08-16T05:07:54.580Z,66.50
2018-08-16T05:08:28.844Z,66.80
2018-08-16T05:09:02.562Z,66.80
2018-08-16T05:09:36.213Z,66.70
2018-08-16T05:10:10.888Z,66.70
2018-08-16T05:10:45.131Z,66.80
2018-08-16T05:11:18.885Z,66.90
2018-08-16T05:11:52.550Z,67.20
2018-08-16T05:12:26.261Z,67.20
2018-08-16T05:12:59.961Z,67.00
2018-08-16T05:13:33.561Z,66.70
2018-08-16T05:14:07.161Z,66.60
2018-08-16T05:14:40.764Z,66.30
2018-08-16T05:15:14.403Z,66.20
2018-08-16T05:15:47.973Z,66.10
2018-08-16T05:16:21.636Z,65.90
2018-08-16T05:16:55.262Z,66.10
2018-08-16T05:17:29.104Z,66.10
2018-08-16T05:18:02.708Z,66.00
2018-08-16T05:18:36.279Z,65.90
2018-08-16T05:19:09.996Z,66.10
2018-08-16T05:19:43.593Z,66.00
2018-08-16T05:20:17.145Z,66.00
2018-08-16T05:20:50.698Z,66.10
2018-08-16T05:21:24.709Z,66.20
2018-08-16T05:21:58.907Z,66.50
2018-08-16T05:22:33.019Z,66.50
2018-08-16T05:23:06.563Z,66.40
2018-08-16T05:23:40.140Z,66.40
2018-08-16T05:24:13.734Z,66.40
2018-08-16T05:24:47.260Z,66.10
2018-08-16T05:25:21.695Z,66.00
2018-08-16T05:25:55.273Z,65.80
2018-08-16T05:26:29.887Z,65.60
2018-08-16T05:27:04.039Z,65.70
2018-08-16T05:27:38.371Z,65.80
2018-08-16T05:28:11.968Z,65.50
2018-08-16T05:28:45.487Z,65.50
2018-08-16T05:29:19.060Z,65.60
2018-08-16T05:29:52.688Z,65.50
2018-08-16T05:30:26.372Z,65.60
2018-08-16T05:30:59.935Z,65.90
2018-08-16T05:31:33.565Z,65.80
2018-08-16T05:32:07.135Z,65.90
2018-08-16T05:32:41.073Z,65.90
2018-08-16T05:33:14.646Z,65.90
2018-08-16T05:33:48.293Z,65.90
2018-08-16T05:34:22.498Z,65.90
2018-08-16T05:34:56.879Z,65.90
2018-08-16T05:35:31.194Z,66.10
2018-08-16T05:36:04.901Z,66.10
2018-08-16T05:36:38.932Z,65.90
2018-08-16T05:37:13.429Z,65.80
2018-08-16T05:37:46.994Z,65.70
2018-08-16T05:38:20.651Z,65.90
2018-08-16T05:38:54.208Z,65.80
2018-08-16T05:39:27.880Z,65.80
2018-08-16T05:40:01.476Z,65.80
2018-08-16T05:40:35.072Z,65.70
2018-08-16T05:41:09.470Z,65.70
2018-08-16T05:41:43.025Z,65.50
2018-08-16T05:42:17.027Z,65.60
2018-08-16T05:42:50.640Z,65.60
2018-08-16T05:43:24.282Z,65.60
2018-08-16T05:43:57.769Z,65.70
2018-08-16T05:44:31.394Z,65.90
2018-08-16T05:45:05.686Z,65.90
2018-08-16T05:45:39.285Z,66.00
2018-08-16T05:46:12.892Z,66.10
2018-08-16T05:46:46.455Z,66.00
2018-08-16T05:47:20.032Z,65.80
2018-08-16T05:47:54.179Z,65.80
2018-08-16T05:48:27.732Z,65.70
2018-08-16T05:49:01.618Z,65.80
2018-08-16T05:49:35.288Z,65.70
2018-08-16T05:50:11.905Z,65.90
2018-08-16T05:50:45.576Z,65.80
2018-08-16T05:51:19.127Z,65.60
2018-08-16T05:51:53.900Z,65.60
2018-08-16T05:52:28.996Z,65.70
2018-08-16T05:53:02.600Z,65.90
2018-08-16T05:53:36.507Z,66.00
2018-08-16T05:54:10.087Z,66.00
2018-08-16T05:54:43.656Z,66.00
2018-08-16T05:55:17.356Z,66.10
2018-08-16T05:55:50.991Z,66.20
2018-08-16T05:56:24.921Z,66.40
2018-08-16T05:56:58.561Z,66.40
2018-08-16T05:57:32.711Z,66.60
2018-08-16T05:58:07.048Z,66.80
2018-08-16T05:58:40.653Z,66.70
2018-08-16T05:59:14.262Z,66.80
2018-08-16T05:59:47.836Z,66.70
2018-08-16T06:00:21.499Z,66.50
2018-08-16T06:00:56.116Z,66.50
2018-08-16T06:01:30.376Z,66.30
2018-08-16T06:02:04.036Z,66.40
2018-08-16T06:02:38.290Z,66.20
2018-08-16T06:03:12.175Z,65.90
2018-08-16T06:03:45.917Z,65.80
2018-08-16T06:04:20.680Z,65.70
2018-08-16T06:04:54.249Z,65.50
2018-08-16T06:05:27.822Z,65.60
2018-08-16T06:06:01.496Z,65.80
2018-08-16T06:06:35.660Z,66.00
2018-08-16T06:07:09.399Z,65.30
2018-08-16T06:07:43.144Z,65.20
2018-08-16T06:08:16.935Z,65.20
2018-08-16T06:08:50.591Z,65.10
2018-08-16T06:09:24.184Z,65.10
2018-08-16T06:09:58.685Z,64.80
2018-08-16T06:10:32.366Z,64.90
2018-08-16T06:11:06.036Z,65.00
2018-08-16T06:11:41.297Z,65.00
2018-08-16T06:12:14.949Z,64.90
2018-08-16T06:12:48.468Z,64.70
2018-08-16T06:13:22.177Z,64.70
2018-08-16T06:13:55.843Z,64.40
2018-08-16T06:14:29.436Z,64.10
2018-08-16T06:15:03.081Z,64.20
2018-08-16T06:15:36.824Z,64.10
2018-08-16T06:16:10.400Z,63.90
2018-08-16T06:16:44.008Z,63.70
2018-08-16T06:17:18.510Z,63.70
2018-08-16T06:17:52.078Z,63.80
2018-08-16T06:18:25.983Z,63.80
2018-08-16T06:19:00.224Z,63.70
2018-08-16T06:19:33.832Z,63.80
2018-08-16T06:20:10.615Z,63.80
2018-08-16T06:20:44.857Z,63.80
2018-08-16T06:21:18.580Z,63.20
2018-08-16T06:21:52.310Z,62.70
2018-08-16T06:22:26.596Z,62.60
2018-08-16T06:23:01.759Z,62.70
2018-08-16T06:23:35.808Z,62.70
2018-08-16T06:24:09.446Z,62.70
2018-08-16T06:24:43.214Z,62.80
2018-08-16T06:25:17.393Z,62.70
2018-08-16T06:25:51.368Z,62.70
2018-08-16T06:26:25.718Z,62.50
2018-08-16T06:27:00.225Z,62.50
2018-08-16T06:27:34.525Z,62.60
2018-08-16T06:28:08.612Z,62.60
2018-08-16T06:28:42.253Z,62.60
2018-08-16T06:29:16.315Z,62.60
2018-08-16T06:29:49.899Z,62.60
2018-08-16T06:30:23.590Z,62.80
2018-08-16T06:30:57.258Z,62.90
2018-08-16T06:31:31.463Z,63.10
2018-08-16T06:32:05.447Z,63.10
2018-08-16T06:32:39.043Z,62.90
2018-08-16T06:33:12.601Z,62.80
2018-08-16T06:33:46.399Z,63.00
2018-08-16T06:34:21.371Z,62.90
2018-08-16T06:34:56.965Z,62.90
2018-08-16T06:35:30.638Z,63.50
2018-08-16T06:36:05.804Z,62.90
2018-08-16T06:36:40.228Z,62.90
2018-08-16T06:37:13.855Z,63.00
2018-08-16T06:37:47.559Z,62.80
2018-08-16T06:38:21.183Z,62.60
2018-08-16T06:38:54.889Z,62.70
2018-08-16T06:39:28.978Z,63.00
2018-08-16T06:40:04.097Z,63.00
2018-08-16T06:40:37.740Z,62.80
2018-08-16T06:41:11.964Z,63.00
2018-08-16T06:41:46.198Z,63.00
2018-08-16T06:42:20.507Z,63.00
2018-08-16T06:42:54.800Z,62.70
2018-08-16T06:43:28.376Z,62.70
2018-08-16T06:44:02.033Z,62.80
2018-08-16T06:44:35.812Z,62.70
2018-08-16T06:45:10.435Z,62.50
2018-08-16T06:45:44.241Z,62.60
2018-08-16T06:46:18.604Z,62.50
2018-08-16T06:46:52.132Z,62.60
2018-08-16T06:47:26.316Z,62.90
2018-08-16T06:48:00.575Z,62.90
2018-08-16T06:48:34.872Z,62.70
2018-08-16T06:49:08.841Z,62.40
2018-08-16T06:49:42.423Z,62.40
2018-08-16T06:50:16.049Z,62.50
2018-08-16T06:50:49.618Z,62.40
2018-08-16T06:51:23.132Z,62.50
2018-08-16T06:51:56.812Z,62.60
2018-08-16T06:52:30.463Z,62.70
2018-08-16T06:53:04.059Z,62.90
2018-08-16T06:53:37.577Z,62.80
2018-08-16T06:54:11.284Z,62.70
2018-08-16T06:54:44.848Z,62.80
2018-08-16T06:55:18.416Z,62.60
2018-08-16T06:55:51.999Z,62.30
2018-08-16T06:56:25.617Z,62.20
2018-08-16T06:56:59.220Z,62.40
2018-08-16T06:57:32.815Z,62.30
2018-08-16T06:58:06.448Z,62.00
2018-08-16T06:58:40.115Z,61.90
2018-08-16T06:59:14.244Z,61.80
2018-08-16T06:59:47.993Z,61.80
2018-08-16T07:00:22.419Z,61.60
2018-08-16T07:00:56.716Z,61.50
2018-08-16T07:01:30.288Z,61.50
2018-08-16T07:02:05.140Z,61.60
2018-08-16T07:02:38.817Z,61.80
2018-08-16T07:03:12.393Z,62.00
2018-08-16T07:03:46.449Z,62.10
2018-08-16T07:04:20.152Z,62.30
2018-08-16T07:04:54.098Z,62.30
2018-08-16T07:05:27.778Z,62.20
2018-08-16T07:06:01.416Z,62.00
2018-08-16T07:06:37.375Z,61.70
2018-08-16T07:07:11.004Z,61.60
2018-08-16T07:07:45.075Z,61.70
2018-08-16T07:08:19.188Z,61.60
2018-08-16T07:08:52.808Z,61.30
2018-08-16T07:09:27.243Z,61.40
2018-08-16T07:10:00.953Z,61.30
2018-08-16T07:10:34.522Z,61.30
2018-08-16T07:11:08.743Z,61.20
2018-08-16T07:11:42.373Z,61.20
2018-08-16T07:12:16.010Z,61.10
2018-08-16T07:12:49.647Z,61.10
2018-08-16T07:13:24.188Z,61.20
2018-08-16T07:13:57.771Z,61.10
2018-08-16T07:14:32.775Z,61.20
2018-08-16T07:15:10.990Z,61.30
2018-08-16T07:15:44.621Z,61.10
2018-08-16T07:16:18.959Z,61.30
2018-08-16T07:16:52.495Z,61.20